Time;durP1;ratioP1;P1;durP2;ratioP2;P2;SDS_P1;SDS_P2;PMS_P1;PMS_P2;Temp;Humidity;BMP_temperature;BMP_pressure;BME280_temperature;BME280_humidity;BME280_pressure;Samples;Min_cycle;Max_cycle;Signal;HPM_P1;HPM_P2
2023/08/13 00:01:50;;;;;;;11.38;5.75;;;;;;;;;;5076387;28;20045;-82
2023/08/13 00:04:17;;;;;;;8.85;6.03;;;;;;;;;;5074347;28;20045;-83
2023/08/13 00:06:44;;;;;;;9.05;5.40;;;;;;;;;;5075910;28;20059;-82
2023/08/13 00:09:12;;;;;;;15.70;7.88;;;;;;;;;;5075599;28;20051;-82
2023/08/13 00:11:39;;;;;;;9.30;5.40;;;;;;;;;;5078320;28;20052;-82
2023/08/13 00:14:06;;;;;;;5.55;4.95;;;;;;;;;;5078019;28;20044;-82
2023/08/13 00:16:34;;;;;;;16.25;6.90;;;;;;;;;;5082719;28;20048;-83
2023/08/13 00:19:01;;;;;;;6.70;5.22;;;;;;;;;;5078238;28;20048;-82
2023/08/13 00:21:28;;;;;;;14.80;7.72;;;;;;;;;;5077323;28;20048;-82
2023/08/13 00:23:55;;;;;;;17.40;7.70;;;;;;;;;;5077573;28;20045;-82
2023/08/13 00:26:23;;;;;;;14.18;6.72;;;;;;;;;;5078555;28;20200;-82
2023/08/13 00:28:50;;;;;;;11.52;7.72;;;;;;;;;;5076874;28;20110;-81
2023/08/13 00:31:17;;;;;;;8.57;6.28;;;;;;;;;;5078399;28;20453;-83
2023/08/13 00:33:44;;;;;;;8.85;6.40;;;;;;;;;;5076860;28;20045;-82
2023/08/13 00:36:11;;;;;;;10.15;6.25;;;;;;;;;;5078780;28;20040;-82
2023/08/13 00:38:39;;;;;;;10.10;6.45;;;;;;;;;;5076321;28;20060;-82
2023/08/13 00:41:06;;;;;;;11.25;6.75;;;;;;;;;;5077901;28;20040;-82
2023/08/13 00:43:34;;;;;;;11.98;7.22;;;;;;;;;;5076236;28;20048;-82
2023/08/13 00:46:01;;;;;;;13.30;7.30;;;;;;;;;;5078278;28;20098;-81
2023/08/13 00:48:28;;;;;;;11.25;6.10;;;;;;;;;;5077450;28;20140;-82
2023/08/13 00:50:55;;;;;;;7.35;5.95;;;;;;;;;;5077512;28;20481;-82
2023/08/13 00:53:23;;;;;;;6.10;5.60;;;;;;;;;;5076825;28;20049;-82
2023/08/13 00:55:50;;;;;;;10.15;5.90;;;;;;;;;;5076039;28;20045;-82
2023/08/13 00:58:18;;;;;;;6.20;5.63;;;;;;;;;;5073703;28;20101;-81
2023/08/13 01:00:46;;;;;;;10.77;5.80;;;;;;;;;;5073777;28;20102;-81
2023/08/13 01:03:13;;;;;;;7.03;5.88;;;;;;;;;;5075240;28;20052;-81
2023/08/13 01:05:52;;;;;;;9.20;5.95;;;;;;;;;;5073541;28;20135;-81
2023/08/13 01:08:39;;;;;;;13.45;7.20;;;;;;;;;;5073457;28;20567;-81
2023/08/13 01:11:10;;;;;;;7.55;5.80;;;;;;;;;;5073950;28;20059;-82
2023/08/13 01:13:44;;;;;;;12.57;8.40;;;;;;;;;;5073599;28;20052;-81
2023/08/13 01:16:13;;;;;;;11.25;9.85;;;;;;;;;;5074788;28;20049;-82
2023/08/13 01:18:41;;;;;;;14.05;8.82;;;;;;;;;;5074929;28;20056;-81
2023/08/13 01:21:08;;;;;;;14.27;8.45;;;;;;;;;;5073291;28;20040;-81
2023/08/13 01:23:35;;;;;;;12.57;8.18;;;;;;;;;;5073516;28;20427;-81
2023/08/13 01:26:13;;;;;;;12.98;7.38;;;;;;;;;;5073639;28;20102;-81
2023/08/13 01:28:43;;;;;;;10.40;8.82;;;;;;;;;;5073229;28;20110;-81
2023/08/13 01:31:25;;;;;;;12.80;9.25;;;;;;;;;;5075943;28;20052;-82
2023/08/13 01:33:53;;;;;;;8.20;7.50;;;;;;;;;;5075469;28;20055;-82
2023/08/13 01:36:20;;;;;;;10.65;7.15;;;;;;;;;;5075551;28;20044;-81
2023/08/13 01:38:48;;;;;;;17.27;8.63;;;;;;;;;;5075472;28;20487;-83
2023/08/13 01:41:15;;;;;;;10.48;9.38;;;;;;;;;;5076454;28;20490;-82
2023/08/13 01:43:42;;;;;;;14.27;9.13;;;;;;;;;;5075330;28;20056;-80
2023/08/13 01:46:10;;;;;;;17.08;8.38;;;;;;;;;;5074996;28;20098;-82
2023/08/13 01:48:37;;;;;;;7.85;6.78;;;;;;;;;;5075164;28;20064;-82
2023/08/13 01:51:04;;;;;;;14.68;8.90;;;;;;;;;;5076895;28;20048;-81
2023/08/13 01:53:31;;;;;;;15.73;8.10;;;;;;;;;;5075224;28;20048;-82
2023/08/13 01:55:59;;;;;;;10.40;7.68;;;;;;;;;;5074005;28;20090;-81
2023/08/13 01:58:27;;;;;;;34.78;9.90;;;;;;;;;;5075930;28;20048;-81
2023/08/13 02:00:54;;;;;;;20.13;10.35;;;;;;;;;;5078221;28;20045;-82
2023/08/13 02:03:21;;;;;;;12.23;8.15;;;;;;;;;;5079059;28;20056;-82
2023/08/13 02:05:48;;;;;;;8.40;7.60;;;;;;;;;;5077644;28;20493;-81
2023/08/13 02:08:15;;;;;;;13.98;9.50;;;;;;;;;;5072314;28;20102;-81
2023/08/13 02:10:43;;;;;;;8.30;6.93;;;;;;;;;;5073216;28;20052;-81
2023/08/13 02:13:10;;;;;;;10.75;7.70;;;;;;;;;;5074071;28;20086;-82
2023/08/13 02:15:37;;;;;;;10.80;8.27;;;;;;;;;;5074748;28;20461;-82
2023/08/13 02:18:04;;;;;;;9.90;7.72;;;;;;;;;;5075435;28;20430;-82
2023/08/13 02:20:32;;;;;;;8.15;7.50;;;;;;;;;;5075397;28;20049;-82
2023/08/13 02:22:59;;;;;;;8.63;7.13;;;;;;;;;;5074912;28;20052;-82
2023/08/13 02:25:26;;;;;;;6.90;6.22;;;;;;;;;;5077264;28;20048;-82
2023/08/13 02:27:53;;;;;;;10.20;6.63;;;;;;;;;;5075968;28;20067;-82
2023/08/13 02:30:21;;;;;;;7.07;6.25;;;;;;;;;;5077260;28;20114;-82
2023/08/13 02:32:48;;;;;;;9.20;7.32;;;;;;;;;;5077220;28;20415;-82
2023/08/13 02:35:16;;;;;;;9.85;6.82;;;;;;;;;;5075529;28;20115;-82
2023/08/13 02:37:43;;;;;;;9.63;8.23;;;;;;;;;;5074476;28;20045;-81
2023/08/13 02:40:10;;;;;;;14.75;8.27;;;;;;;;;;5076575;28;20087;-81
2023/08/13 02:42:38;;;;;;;13.02;8.30;;;;;;;;;;5073876;28;20048;-81
2023/08/13 02:45:05;;;;;;;8.20;7.15;;;;;;;;;;5075980;28;20049;-82
2023/08/13 02:47:32;;;;;;;9.55;6.70;;;;;;;;;;5076864;28;20052;-82
2023/08/13 02:49:59;;;;;;;14.13;9.77;;;;;;;;;;5076200;28;20073;-82
2023/08/13 02:52:27;;;;;;;13.85;8.15;;;;;;;;;;5076024;28;20544;-82
2023/08/13 02:54:54;;;;;;;18.83;8.40;;;;;;;;;;5075694;28;20055;-82
2023/08/13 02:57:21;;;;;;;12.43;9.43;;;;;;;;;;5076115;28;20044;-82
2023/08/13 02:59:48;;;;;;;14.40;10.38;;;;;;;;;;5076281;28;20086;-82
2023/08/13 03:02:16;;;;;;;13.40;9.43;;;;;;;;;;5077927;28;20040;-82
2023/08/13 03:04:44;;;;;;;11.90;9.48;;;;;;;;;;5076838;28;20414;-82
2023/08/13 03:07:11;;;;;;;11.63;8.02;;;;;;;;;;5077826;28;20048;-82
2023/08/13 03:09:38;;;;;;;8.50;7.68;;;;;;;;;;5076404;28;20470;-83
2023/08/13 03:12:06;;;;;;;10.98;8.30;;;;;;;;;;5077939;28;20159;-82
2023/08/13 03:14:33;;;;;;;11.63;7.07;;;;;;;;;;5076505;28;20044;-82
2023/08/13 03:17:00;;;;;;;9.38;7.45;;;;;;;;;;5078278;28;20048;-82
2023/08/13 03:19:27;;;;;;;8.63;7.75;;;;;;;;;;5078441;28;20099;-82
2023/08/13 03:21:54;;;;;;;8.27;7.22;;;;;;;;;;5078387;28;20041;-82
2023/08/13 03:24:22;;;;;;;12.75;8.88;;;;;;;;;;5078781;28;20070;-82
2023/08/13 03:26:49;;;;;;;9.75;8.77;;;;;;;;;;5077728;28;20048;-82
2023/08/13 03:29:16;;;;;;;10.02;8.98;;;;;;;;;;5078824;28;20122;-84
2023/08/13 03:31:43;;;;;;;12.77;9.48;;;;;;;;;;5088546;28;20048;-82
2023/08/13 03:34:11;;;;;;;18.83;10.55;;;;;;;;;;5089470;28;20032;-82
2023/08/13 03:36:38;;;;;;;18.40;12.50;;;;;;;;;;5071888;28;20067;-81
2023/08/13 03:39:06;;;;;;;23.58;11.82;;;;;;;;;;5072187;28;20422;-81
2023/08/13 03:41:33;;;;;;;15.88;10.52;;;;;;;;;;5072252;28;20113;-81
2023/08/13 03:44:00;;;;;;;16.80;9.98;;;;;;;;;;5071414;28;20110;-81
2023/08/13 03:46:27;;;;;;;28.60;13.70;;;;;;;;;;5075200;28;20048;-82
2023/08/13 03:48:54;;;;;;;17.17;10.70;;;;;;;;;;5075358;28;20123;-81
2023/08/13 03:51:22;;;;;;;16.30;9.82;;;;;;;;;;5074348;28;20102;-81
2023/08/13 03:53:49;;;;;;;18.05;10.10;;;;;;;;;;5075953;28;20071;-81
2023/08/13 03:56:16;;;;;;;12.57;9.38;;;;;;;;;;5075855;28;20071;-81
2023/08/13 03:58:44;;;;;;;17.00;9.95;;;;;;;;;;5075720;28;20049;-81
2023/08/13 04:01:11;;;;;;;12.32;8.27;;;;;;;;;;5076625;28;20044;-82
2023/08/13 04:03:38;;;;;;;11.93;8.60;;;;;;;;;;5075435;28;20049;-82
2023/08/13 04:06:05;;;;;;;12.20;8.73;;;;;;;;;;5076896;28;20056;-82
2023/08/13 04:08:34;;;;;;;15.70;8.73;;;;;;;;;;5076791;28;20572;-82
2023/08/13 04:11:01;;;;;;;12.35;9.90;;;;;;;;;;5077845;28;20131;-81
2023/08/13 04:13:29;;;;;;;21.70;12.25;;;;;;;;;;5077311;28;20045;-82
2023/08/13 04:15:56;;;;;;;13.50;11.63;;;;;;;;;;5077214;28;20044;-82
2023/08/13 04:18:23;;;;;;;20.15;15.02;;;;;;;;;;5076861;28;20055;-82
2023/08/13 04:20:50;;;;;;;19.40;13.55;;;;;;;;;;5077992;28;20075;-82
2023/08/13 04:23:18;;;;;;;19.92;13.27;;;;;;;;;;5077513;28;20072;-82
2023/08/13 04:25:45;;;;;;;16.15;11.82;;;;;;;;;;5076639;28;20048;-81
2023/08/13 04:28:12;;;;;;;17.23;11.02;;;;;;;;;;5076398;28;20053;-82
2023/08/13 04:30:40;;;;;;;20.83;13.55;;;;;;;;;;5075785;28;20052;-82
2023/08/13 04:33:07;;;;;;;17.50;14.43;;;;;;;;;;5080496;28;20055;-82
2023/08/13 04:35:34;;;;;;;20.15;13.63;;;;;;;;;;5084680;28;20048;-83
2023/08/13 04:38:01;;;;;;;13.73;11.20;;;;;;;;;;5082910;28;20055;-82
2023/08/13 04:40:29;;;;;;;17.65;12.32;;;;;;;;;;5082452;28;20064;-82
2023/08/13 04:42:56;;;;;;;14.30;11.35;;;;;;;;;;5080659;28;20099;-82
2023/08/13 04:45:23;;;;;;;11.90;10.73;;;;;;;;;;5079576;28;20053;-84
2023/08/13 04:47:50;;;;;;;13.93;9.98;;;;;;;;;;5080590;28;20052;-82
2023/08/13 04:50:18;;;;;;;12.02;10.20;;;;;;;;;;5079173;28;20076;-83
2023/08/13 04:52:45;;;;;;;13.57;11.63;;;;;;;;;;5079262;28;20140;-83
2023/08/13 04:55:12;;;;;;;19.45;13.68;;;;;;;;;;5078813;28;20052;-82
2023/08/13 04:57:40;;;;;;;14.43;12.43;;;;;;;;;;5078521;28;20052;-82
2023/08/13 05:00:09;;;;;;;13.90;11.13;;;;;;;;;;5078561;28;20045;-83
2023/08/13 05:02:36;;;;;;;16.08;11.18;;;;;;;;;;5078872;28;20136;-82
2023/08/13 05:05:04;;;;;;;12.70;11.40;;;;;;;;;;5078456;28;20522;-82
2023/08/13 05:07:31;;;;;;;15.32;10.40;;;;;;;;;;5077870;28;20056;-82
2023/08/13 05:09:58;;;;;;;13.85;11.70;;;;;;;;;;5077980;28;20056;-82
2023/08/13 05:12:26;;;;;;;15.77;11.90;;;;;;;;;;5078085;28;20132;-82
2023/08/13 05:14:54;;;;;;;13.00;11.82;;;;;;;;;;5079056;28;20040;-82
2023/08/13 05:17:22;;;;;;;11.55;10.35;;;;;;;;;;5073461;28;20556;-82
2023/08/13 05:19:49;;;;;;;11.82;10.73;;;;;;;;;;5074433;28;20056;-81
2023/08/13 05:22:16;;;;;;;13.95;11.98;;;;;;;;;;5073419;28;20064;-81
2023/08/13 05:24:44;;;;;;;12.45;11.15;;;;;;;;;;5074415;28;20054;-81
2023/08/13 05:27:11;;;;;;;13.20;11.88;;;;;;;;;;5073654;28;20109;-82
2023/08/13 05:29:38;;;;;;;19.10;11.40;;;;;;;;;;5073203;28;20465;-82
2023/08/13 05:32:05;;;;;;;12.95;10.68;;;;;;;;;;5075864;28;20052;-82
2023/08/13 05:34:33;;;;;;;13.43;10.13;;;;;;;;;;5076475;28;20045;-82
2023/08/13 05:37:00;;;;;;;16.80;10.10;;;;;;;;;;5076760;28;20048;-82
2023/08/13 05:39:27;;;;;;;16.38;10.50;;;;;;;;;;5076258;28;20051;-82
2023/08/13 05:41:54;;;;;;;9.00;7.93;;;;;;;;;;5077902;28;20048;-82
2023/08/13 05:44:21;;;;;;;7.07;5.82;;;;;;;;;;5076433;28;20461;-83
2023/08/13 05:46:49;;;;;;;5.53;5.00;;;;;;;;;;5080239;28;20052;-82
2023/08/13 05:49:16;;;;;;;6.28;4.82;;;;;;;;;;5077955;28;20055;-82
2023/08/13 05:51:43;;;;;;;5.18;4.50;;;;;;;;;;5077149;28;20527;-82
2023/08/13 05:54:12;;;;;;;10.80;4.80;;;;;;;;;;5075842;28;20045;-81
2023/08/13 05:56:39;;;;;;;4.80;4.50;;;;;;;;;;5077001;28;20045;-82
2023/08/13 05:59:06;;;;;;;7.15;4.72;;;;;;;;;;5076597;28;20067;-82
2023/08/13 06:01:34;;;;;;;5.47;4.38;;;;;;;;;;5074739;28;20048;-82
2023/08/13 06:04:02;;;;;;;4.90;4.18;;;;;;;;;;5075749;28;20049;-82
2023/08/13 06:06:29;;;;;;;7.05;3.90;;;;;;;;;;5074974;28;20052;-82
2023/08/13 06:08:56;;;;;;;9.80;4.72;;;;;;;;;;5073789;28;20052;-82
2023/08/13 06:11:24;;;;;;;4.40;4.00;;;;;;;;;;5073996;28;20063;-81
2023/08/13 06:13:51;;;;;;;11.63;4.60;;;;;;;;;;5075774;28;20101;-82
2023/08/13 06:16:18;;;;;;;10.90;5.38;;;;;;;;;;5074718;28;20416;-82
2023/08/13 06:18:46;;;;;;;5.47;4.53;;;;;;;;;;5074671;28;20497;-82
2023/08/13 06:21:13;;;;;;;5.10;4.00;;;;;;;;;;5076265;28;20075;-82
2023/08/13 06:23:40;;;;;;;4.60;4.15;;;;;;;;;;5076255;28;20055;-82
2023/08/13 06:26:07;;;;;;;10.32;4.50;;;;;;;;;;5075793;28;20041;-82
2023/08/13 06:28:35;;;;;;;7.75;3.88;;;;;;;;;;5072391;28;20118;-82
2023/08/13 06:31:03;;;;;;;9.75;4.47;;;;;;;;;;5075324;28;20454;-82
2023/08/13 06:33:31;;;;;;;12.48;4.97;;;;;;;;;;5075016;28;20044;-82
2023/08/13 06:35:58;;;;;;;12.13;4.53;;;;;;;;;;5075453;28;20040;-82
2023/08/13 06:38:26;;;;;;;10.50;3.85;;;;;;;;;;5074954;28;20063;-82
2023/08/13 06:40:53;;;;;;;11.00;4.05;;;;;;;;;;5074124;28;20053;-82
2023/08/13 06:43:20;;;;;;;10.32;4.65;;;;;;;;;;5074916;28;20147;-82
2023/08/13 06:45:47;;;;;;;11.02;4.45;;;;;;;;;;5074565;28;20469;-83
2023/08/13 06:48:15;;;;;;;13.18;4.60;;;;;;;;;;5076849;28;20082;-82
2023/08/13 06:50:42;;;;;;;15.43;4.63;;;;;;;;;;5075445;28;20052;-82
2023/08/13 06:53:09;;;;;;;12.25;4.80;;;;;;;;;;5074067;28;20495;-82
2023/08/13 06:55:36;;;;;;;7.28;4.10;;;;;;;;;;5071520;28;20121;-81
2023/08/13 06:58:04;;;;;;;8.05;4.70;;;;;;;;;;5073053;28;20094;-82
2023/08/13 07:00:31;;;;;;;5.78;3.88;;;;;;;;;;5071426;28;20507;-82
2023/08/13 07:03:06;;;;;;;9.73;3.85;;;;;;;;;;5071736;28;20049;-82
2023/08/13 07:05:34;;;;;;;10.68;3.83;;;;;;;;;;5071886;28;20147;-82
2023/08/13 07:08:01;;;;;;;6.68;4.10;;;;;;;;;;5071617;28;20124;-82
2023/08/13 07:10:29;;;;;;;6.88;3.90;;;;;;;;;;5072873;28;20056;-82
2023/08/13 07:12:56;;;;;;;7.97;3.95;;;;;;;;;;5071975;28;20048;-82
2023/08/13 07:15:23;;;;;;;8.80;3.63;;;;;;;;;;5071807;28;20094;-82
2023/08/13 07:17:51;;;;;;;3.80;3.50;;;;;;;;;;5072217;28;20041;-82
2023/08/13 07:20:18;;;;;;;4.82;3.65;;;;;;;;;;5073421;28;20045;-82
2023/08/13 07:22:47;;;;;;;4.78;3.70;;;;;;;;;;5074440;28;20086;-82
2023/08/13 07:25:14;;;;;;;6.78;4.10;;;;;;;;;;5078133;28;20086;-82
2023/08/13 07:27:43;;;;;;;5.55;4.15;;;;;;;;;;5077116;28;20060;-82
2023/08/13 07:30:11;;;;;;;6.40;3.95;;;;;;;;;;5078757;28;20076;-82
2023/08/13 07:32:43;;;;;;;8.13;3.92;;;;;;;;;;5074708;28;20106;-82
2023/08/13 07:35:12;;;;;;;3.92;3.50;;;;;;;;;;5075225;28;20049;-82
2023/08/13 07:37:39;;;;;;;4.95;3.78;;;;;;;;;;5075416;28;20040;-82
2023/08/13 07:40:07;;;;;;;4.05;3.13;;;;;;;;;;5076634;28;20055;-82
2023/08/13 07:42:36;;;;;;;6.03;3.95;;;;;;;;;;5075029;28;20079;-82
2023/08/13 07:45:08;;;;;;;7.15;3.47;;;;;;;;;;5074560;28;20516;-82
2023/08/13 07:47:38;;;;;;;3.45;3.13;;;;;;;;;;5075246;28;20055;-82
2023/08/13 07:50:06;;;;;;;3.35;3.10;;;;;;;;;;5073231;28;20095;-82
2023/08/13 07:52:35;;;;;;;5.72;2.50;;;;;;;;;;5074574;28;20125;-82
2023/08/13 07:55:03;;;;;;;9.75;7.38;;;;;;;;;;5073462;28;20541;-82
2023/08/13 07:57:30;;;;;;;18.45;11.73;;;;;;;;;;5073584;28;20056;-82
2023/08/13 07:59:58;;;;;;;20.90;15.27;;;;;;;;;;5073797;28;20521;-82
2023/08/13 08:02:26;;;;;;;8.68;7.88;;;;;;;;;;5073681;28;20070;-82
2023/08/13 08:04:54;;;;;;;3.47;3.17;;;;;;;;;;5074368;28;20118;-82
2023/08/13 08:07:21;;;;;;;2.05;1.95;;;;;;;;;;5074441;28;20114;-82
2023/08/13 08:09:49;;;;;;;16.45;12.10;;;;;;;;;;5073439;28;20052;-82
2023/08/13 08:12:16;;;;;;;55.95;38.47;;;;;;;;;;5075210;28;20064;-81
2023/08/13 08:14:43;;;;;;;26.20;18.15;;;;;;;;;;5075243;28;20052;-81
2023/08/13 08:17:11;;;;;;;7.07;6.38;;;;;;;;;;5076384;28;20419;-82
2023/08/13 08:19:38;;;;;;;9.32;6.15;;;;;;;;;;5074305;28;20048;-82
2023/08/13 08:22:05;;;;;;;4.20;3.88;;;;;;;;;;5075428;28;20044;-82
2023/08/13 08:24:32;;;;;;;3.42;2.97;;;;;;;;;;5075338;28;20044;-81
2023/08/13 08:27:00;;;;;;;5.00;4.47;;;;;;;;;;5076435;28;20522;-82
2023/08/13 08:29:27;;;;;;;3.92;3.60;;;;;;;;;;5073727;28;20056;-82
2023/08/13 08:31:54;;;;;;;6.57;5.97;;;;;;;;;;5074629;28;20052;-80
2023/08/13 08:34:22;;;;;;;7.03;6.32;;;;;;;;;;5076444;28;20052;-81
2023/08/13 08:36:49;;;;;;;12.25;7.00;;;;;;;;;;5077732;28;20044;-81
2023/08/13 08:39:18;;;;;;;5.40;4.93;;;;;;;;;;5077023;28;20094;-82
2023/08/13 08:41:46;;;;;;;3.28;3.08;;;;;;;;;;5076936;28;20055;-80
2023/08/13 08:44:21;;;;;;;1.50;1.40;;;;;;;;;;5077799;28;20052;-81
2023/08/13 08:46:49;;;;;;;1.50;1.40;;;;;;;;;;5079858;28;20045;-81
2023/08/13 08:49:18;;;;;;;1.33;1.30;;;;;;;;;;5078937;28;20119;-81
2023/08/13 08:51:46;;;;;;;1.55;1.48;;;;;;;;;;5082666;28;20468;-82
2023/08/13 08:54:14;;;;;;;1.15;1.15;;;;;;;;;;5081102;28;20048;-82
2023/08/13 08:56:41;;;;;;;1.58;1.48;;;;;;;;;;5079836;28;20044;-81
2023/08/13 08:59:08;;;;;;;1.95;1.50;;;;;;;;;;5080331;28;20400;-81
2023/08/13 09:01:36;;;;;;;13.25;2.53;;;;;;;;;;5079959;28;20053;-81
2023/08/13 09:04:03;;;;;;;2.88;1.88;;;;;;;;;;5080850;28;20053;-81
2023/08/13 09:06:51;;;;;;;1.80;1.38;;;;;;;;;;5082652;28;20055;-82
2023/08/13 09:09:18;;;;;;;1.77;1.40;;;;;;;;;;5081591;28;20052;-81
2023/08/13 09:11:46;;;;;;;1.08;1.02;;;;;;;;;;5082112;28;20053;-82
2023/08/13 09:14:14;;;;;;;1.10;1.00;;;;;;;;;;5080052;28;20131;-82
2023/08/13 09:16:48;;;;;;;2.15;1.00;;;;;;;;;;5081273;28;20575;-83
2023/08/13 09:19:16;;;;;;;1.13;1.10;;;;;;;;;;5082714;28;20075;-82
2023/08/13 09:21:54;;;;;;;0.95;0.90;;;;;;;;;;5080749;28;20049;-82
2023/08/13 09:24:31;;;;;;;3.40;1.00;;;;;;;;;;5082633;28;20044;-82
2023/08/13 09:26:59;;;;;;;0.80;0.80;;;;;;;;;;5082548;28;20052;-81
2023/08/13 09:29:30;;;;;;;4.10;1.42;;;;;;;;;;5084291;28;20083;-82
2023/08/13 09:31:57;;;;;;;1.95;0.80;;;;;;;;;;5082893;28;20391;-83
2023/08/13 09:34:26;;;;;;;2.45;1.17;;;;;;;;;;5084124;28;20048;-83
2023/08/13 09:36:54;;;;;;;2.38;0.77;;;;;;;;;;5082909;28;20044;-82
2023/08/13 09:39:24;;;;;;;0.88;0.88;;;;;;;;;;5082707;28;20052;-82
2023/08/13 09:41:52;;;;;;;0.95;0.80;;;;;;;;;;5081308;28;20062;-81
2023/08/13 09:44:20;;;;;;;0.85;0.80;;;;;;;;;;5078120;28;20052;-81
2023/08/13 09:46:49;;;;;;;0.82;0.60;;;;;;;;;;5077286;28;20071;-82
2023/08/13 09:49:17;;;;;;;1.10;0.85;;;;;;;;;;5075532;28;20503;-80
2023/08/13 09:51:47;;;;;;;1.23;0.80;;;;;;;;;;5076836;28;20056;-81
2023/08/13 09:54:18;;;;;;;0.82;0.70;;;;;;;;;;5074795;28;20057;-81
2023/08/13 09:56:47;;;;;;;1.20;1.00;;;;;;;;;;5074627;28;20060;-81
2023/08/13 09:59:15;;;;;;;1.50;0.90;;;;;;;;;;5074422;28;20265;-79
2023/08/13 10:01:43;;;;;;;2.15;1.02;;;;;;;;;;5076239;28;20082;-81
2023/08/13 10:04:10;;;;;;;1.60;0.70;;;;;;;;;;5075222;28;20049;-80
2023/08/13 10:06:38;;;;;;;0.85;0.85;;;;;;;;;;5074309;28;20048;-82
2023/08/13 10:09:06;;;;;;;1.67;0.70;;;;;;;;;;5075588;28;20048;-80
2023/08/13 10:11:33;;;;;;;0.77;0.77;;;;;;;;;;5074185;28;20058;-81
2023/08/13 10:14:01;;;;;;;1.38;0.80;;;;;;;;;;5073231;28;20052;-81
2023/08/13 10:16:29;;;;;;;1.08;0.70;;;;;;;;;;5073193;28;20048;-80
2023/08/13 10:19:01;;;;;;;0.80;0.80;;;;;;;;;;5073489;28;20519;-80
2023/08/13 10:21:38;;;;;;;3.15;0.60;;;;;;;;;;5073094;28;20546;-81
2023/08/13 10:24:06;;;;;;;0.55;0.55;;;;;;;;;;5077234;28;20106;-81
2023/08/13 10:26:33;;;;;;;0.80;0.73;;;;;;;;;;5076800;28;20052;-81
2023/08/13 10:29:14;;;;;;;1.65;0.60;;;;;;;;;;5081269;28;20060;-81
2023/08/13 10:31:48;;;;;;;1.13;0.80;;;;;;;;;;5080334;28;20056;-82
2023/08/13 10:34:19;;;;;;;1.95;1.48;;;;;;;;;;5078175;28;20469;-81
2023/08/13 10:36:50;;;;;;;1.75;0.80;;;;;;;;;;5079209;28;20161;-82
2023/08/13 10:39:37;;;;;;;0.80;0.80;;;;;;;;;;5080422;28;20048;-82
2023/08/13 10:42:39;;;;;;;0.70;0.65;;;;;;;;;;5082304;28;20048;-82
2023/08/13 10:45:10;;;;;;;1.30;1.15;;;;;;;;;;5003641;28;20081;-82
2023/08/13 10:47:38;;;;;;;0.85;0.85;;;;;;;;;;5066074;28;20048;-82
2023/08/13 10:50:24;;;;;;;2.67;0.90;;;;;;;;;;5080162;28;20498;-81
2023/08/13 10:52:53;;;;;;;0.80;0.80;;;;;;;;;;5080717;28;20118;-82
2023/08/13 10:55:23;;;;;;;2.83;0.77;;;;;;;;;;5077803;28;20537;-81
2023/08/13 10:57:53;;;;;;;0.73;0.73;;;;;;;;;;5080790;28;20063;-82
2023/08/13 11:00:24;;;;;;;0.82;0.77;;;;;;;;;;5079255;28;20052;-81
2023/08/13 11:02:52;;;;;;;0.70;0.70;;;;;;;;;;5078657;28;20550;-81
2023/08/13 11:05:23;;;;;;;2.45;0.80;;;;;;;;;;5079152;28;20052;-82
2023/08/13 11:07:51;;;;;;;1.23;1.10;;;;;;;;;;5078575;28;20059;-80
2023/08/13 11:10:19;;;;;;;1.02;0.93;;;;;;;;;;5078325;28;20059;-81
2023/08/13 11:12:47;;;;;;;1.00;0.80;;;;;;;;;;5079693;28;20052;-81
2023/08/13 11:15:15;;;;;;;0.80;0.80;;;;;;;;;;5077049;28;20048;-81
2023/08/13 11:17:46;;;;;;;0.90;0.90;;;;;;;;;;5077341;28;20044;-81
2023/08/13 11:20:16;;;;;;;1.05;1.00;;;;;;;;;;5076718;28;20068;-81
2023/08/13 11:22:43;;;;;;;0.98;0.90;;;;;;;;;;5078170;28;20051;-81
2023/08/13 11:25:11;;;;;;;0.50;0.50;;;;;;;;;;5079332;28;20052;-81
2023/08/13 11:27:39;;;;;;;0.93;0.68;;;;;;;;;;5079480;28;20053;-81
2023/08/13 11:30:09;;;;;;;1.85;1.00;;;;;;;;;;5077117;28;20053;-81
2023/08/13 11:32:37;;;;;;;1.73;0.95;;;;;;;;;;5076505;28;20057;-83
2023/08/13 11:35:06;;;;;;;0.90;0.90;;;;;;;;;;5077764;28;20048;-81
2023/08/13 11:37:34;;;;;;;1.00;1.00;;;;;;;;;;5077182;28;20048;-81
2023/08/13 11:40:01;;;;;;;1.85;1.00;;;;;;;;;;5077037;28;20169;-81
2023/08/13 11:42:29;;;;;;;1.10;0.95;;;;;;;;;;5076418;28;20132;-81
2023/08/13 11:44:56;;;;;;;0.88;0.88;;;;;;;;;;5080470;28;20045;-82
2023/08/13 11:47:25;;;;;;;0.90;0.90;;;;;;;;;;5078689;28;20045;-80
2023/08/13 11:49:54;;;;;;;1.90;1.02;;;;;;;;;;5078274;28;20543;-80
2023/08/13 11:52:22;;;;;;;0.80;0.80;;;;;;;;;;5081673;28;20079;-80
2023/08/13 11:54:50;;;;;;;1.38;1.27;;;;;;;;;;5078569;28;20469;-81
2023/08/13 11:57:19;;;;;;;1.35;1.23;;;;;;;;;;5077619;28;20044;-80
2023/08/13 11:59:49;;;;;;;1.02;1.00;;;;;;;;;;5078423;28;20049;-82
2023/08/13 12:02:16;;;;;;;2.63;1.10;;;;;;;;;;5076488;28;20045;-82
2023/08/13 12:04:48;;;;;;;1.60;0.90;;;;;;;;;;5076926;28;20056;-82
2023/08/13 12:07:16;;;;;;;0.90;0.90;;;;;;;;;;5080195;28;20059;-80
2023/08/13 12:09:43;;;;;;;0.82;0.82;;;;;;;;;;5082508;28;20396;-81
2023/08/13 12:12:10;;;;;;;0.95;0.95;;;;;;;;;;5080662;28;20121;-81
2023/08/13 12:14:45;;;;;;;1.77;1.60;;;;;;;;;;5078987;28;20422;-81
2023/08/13 12:17:13;;;;;;;0.80;0.80;;;;;;;;;;5078373;28;20127;-80
2023/08/13 12:19:40;;;;;;;1.13;0.90;;;;;;;;;;5080015;28;20108;-82
2023/08/13 12:22:07;;;;;;;0.80;0.80;;;;;;;;;;5085123;28;20048;-80
2023/08/13 12:24:35;;;;;;;1.00;1.00;;;;;;;;;;5084150;28;20048;-82
2023/08/13 12:27:02;;;;;;;1.27;1.10;;;;;;;;;;5085078;28;20048;-82
2023/08/13 12:29:29;;;;;;;1.10;1.00;;;;;;;;;;5081485;28;20064;-83
2023/08/13 12:31:56;;;;;;;2.83;1.10;;;;;;;;;;5080678;28;20053;-83
2023/08/13 12:34:24;;;;;;;0.80;0.80;;;;;;;;;;5082347;28;20049;-81
2023/08/13 12:36:51;;;;;;;1.30;1.00;;;;;;;;;;5080348;28;20045;-81
2023/08/13 12:39:18;;;;;;;0.90;0.90;;;;;;;;;;5079940;28;20055;-81
2023/08/13 12:41:45;;;;;;;1.17;1.05;;;;;;;;;;5080633;28;20514;-82
2023/08/13 12:44:12;;;;;;;0.80;0.80;;;;;;;;;;5079101;28;20041;-80
2023/08/13 12:46:40;;;;;;;1.75;1.00;;;;;;;;;;5079815;28;20052;-80
2023/08/13 12:49:07;;;;;;;1.17;1.00;;;;;;;;;;5080114;28;20506;-82
2023/08/13 12:51:35;;;;;;;0.70;0.70;;;;;;;;;;5078917;28;20048;-81
2023/08/13 12:54:02;;;;;;;0.85;0.85;;;;;;;;;;5077785;28;20094;-81
2023/08/13 12:56:30;;;;;;;3.38;1.00;;;;;;;;;;5079078;28;20044;-81
2023/08/13 12:58:57;;;;;;;4.70;3.83;;;;;;;;;;5077453;28;20093;-81
2023/08/13 13:01:24;;;;;;;1.70;1.00;;;;;;;;;;5079584;28;20110;-82
2023/08/13 13:03:51;;;;;;;0.80;0.80;;;;;;;;;;5077423;28;20048;-82
2023/08/13 13:06:19;;;;;;;1.10;1.00;;;;;;;;;;5079786;28;20106;-81
2023/08/13 13:08:46;;;;;;;0.85;0.85;;;;;;;;;;5079775;28;20048;-81
2023/08/13 13:11:14;;;;;;;1.73;1.00;;;;;;;;;;5079235;28;20056;-81
2023/08/13 13:13:41;;;;;;;3.03;1.10;;;;;;;;;;5077062;28;20052;-81
2023/08/13 13:16:08;;;;;;;0.75;0.75;;;;;;;;;;5076917;28;20469;-81
2023/08/13 13:18:36;;;;;;;1.30;1.13;;;;;;;;;;5076506;28;20052;-81
2023/08/13 13:21:03;;;;;;;0.88;0.80;;;;;;;;;;5078828;28;20079;-81
2023/08/13 13:23:30;;;;;;;1.15;0.80;;;;;;;;;;5081418;28;20049;-80
2023/08/13 13:25:57;;;;;;;0.90;0.90;;;;;;;;;;5080938;28;20052;-81
2023/08/13 13:28:25;;;;;;;3.55;1.05;;;;;;;;;;5079516;28;20110;-81
2023/08/13 13:30:52;;;;;;;1.65;0.77;;;;;;;;;;5081891;28;20045;-81
2023/08/13 13:33:20;;;;;;;1.55;0.77;;;;;;;;;;5078922;28;20419;-82
2023/08/13 13:35:47;;;;;;;0.80;0.80;;;;;;;;;;5078316;28;20051;-81
2023/08/13 13:38:14;;;;;;;1.00;1.00;;;;;;;;;;5081235;28;20048;-80
2023/08/13 13:40:42;;;;;;;0.70;0.70;;;;;;;;;;5078896;28;20052;-81
2023/08/13 13:43:09;;;;;;;1.10;1.00;;;;;;;;;;5079142;28;20044;-81
2023/08/13 13:45:36;;;;;;;3.33;1.15;;;;;;;;;;5079066;28;20080;-81
2023/08/13 13:48:03;;;;;;;1.33;1.00;;;;;;;;;;5077135;28;20059;-80
2023/08/13 13:50:31;;;;;;;0.80;0.80;;;;;;;;;;5076496;28;20048;-81
2023/08/13 13:52:58;;;;;;;1.10;1.00;;;;;;;;;;5077435;28;20083;-81
2023/08/13 13:55:45;;;;;;;1.05;0.90;;;;;;;;;;5077124;28;20045;-80
2023/08/13 13:58:12;;;;;;;1.30;0.85;;;;;;;;;;5078006;28;20048;-81
2023/08/13 14:00:39;;;;;;;0.90;0.90;;;;;;;;;;5082902;28;20048;-82
2023/08/13 14:03:06;;;;;;;1.00;1.00;;;;;;;;;;5083304;28;20044;-81
2023/08/13 14:05:34;;;;;;;1.02;0.90;;;;;;;;;;5081226;28;20127;-82
2023/08/13 14:08:01;;;;;;;1.30;1.10;;;;;;;;;;5081373;28;20094;-82
2023/08/13 14:10:28;;;;;;;1.08;1.08;;;;;;;;;;5080123;28;20059;-81
2023/08/13 14:12:56;;;;;;;1.48;1.00;;;;;;;;;;5080044;28;20395;-81
2023/08/13 14:15:23;;;;;;;1.45;1.27;;;;;;;;;;5080465;28;20052;-81
2023/08/13 14:17:50;;;;;;;0.90;0.90;;;;;;;;;;5079322;28;20495;-80
2023/08/13 14:20:18;;;;;;;0.82;0.82;;;;;;;;;;5080044;28;20040;-81
2023/08/13 14:22:45;;;;;;;0.93;0.93;;;;;;;;;;5075817;28;20483;-81
2023/08/13 14:25:12;;;;;;;1.30;1.20;;;;;;;;;;5076604;28;20044;-81
2023/08/13 14:27:39;;;;;;;1.17;1.08;;;;;;;;;;5079782;28;20049;-81
2023/08/13 14:30:07;;;;;;;1.75;0.73;;;;;;;;;;5077177;28;20052;-81
2023/08/13 14:32:34;;;;;;;2.20;1.25;;;;;;;;;;5079485;28;20044;-81
2023/08/13 14:35:01;;;;;;;1.17;1.00;;;;;;;;;;5079109;28;20491;-81
2023/08/13 14:37:29;;;;;;;1.00;1.00;;;;;;;;;;5080641;28;20098;-81
2023/08/13 14:39:56;;;;;;;0.90;0.90;;;;;;;;;;5079257;28;20123;-81
2023/08/13 14:42:23;;;;;;;0.90;0.75;;;;;;;;;;5080340;28;20060;-81